Impacts TAF Board
For situational awareness. Not to be used for flight planning purposes.
IDs:

KIAD - Washington/Dulles In, VA, US

Issued at 1129 UTC 20 Oct 2021
Updated at 1322 UTC 20 Oct 2021
Potential Impact None Slight Moderate High
Time1252Z 20/14Z 20/15Z 20/16Z 20/17Z 20/18Z 20/19Z 20/20Z 20/21Z 20/22Z 20/23Z 21/00Z 21/01Z 21/02Z>>
Type OBS PRVL PRVL PRVL PRVL PRVL PRVL PRVL PRVL PRVL PRVL PRVL PRVL PRVL
VIS 10 >6 >6 >6 >6 >6 >6 >6 >6 >6 >6 >6 >6 >6
CIG -- -- -- -- -- -- -- -- -- -- -- -- -- --
Cover FEW FEW FEW FEW FEW FEW FEW FEW FEW FEW FEW FEW FEW FEW
FltCat VFR VFR VFR VFR VFR VFR VFR VFR VFR VFR VFR VFR VFR VFR
WX -- -- -- -- -- -- -- -- -- -- -- -- -- --
WDir VRB 280 280 280 280 280 280 280 280 280 230 230 200 200
WSpd 0 8 8 8 8 8 8 8 8 8 3 3 3 3
WGst -- -- -- -- -- -- -- -- -- -- -- -- -- --
Raw TAF
KIAD 201129Z 2012/2118 VRB03KT P6SM SCT250
  FM201400 28008KT P6SM FEW250
  FM202300 23003KT P6SM FEW250
  FM210100 20003KT P6SM FEW250


Raw METAR
KIAD 201252Z 00000KT 10SM FEW065 16/09 A3017 RMK AO2 SLP217 T01610094
KIAD 201152Z 28003KT 10SM CLR 10/07 A3016 RMK AO2 SLP212 T01000067 10128 20083 51010
KIAD 201052Z 18003KT 10SM FEW160 BKN250 09/07 A3015 RMK AO2 SLP209 T00890067

METAR Board
Radar Display
Forecast Discussion
For situational awareness. Not to be used for flight planning purposes.